createdAt,value
2018-04-26T00:02:20.543Z,99782.58
2018-04-26T00:05:22.774Z,99779.40
2018-04-26T00:08:24.253Z,99772.34
2018-04-26T00:11:25.758Z,99782.67
2018-04-26T00:14:28.019Z,99791.17
2018-04-26T00:17:29.437Z,99776.36
2018-04-26T00:20:30.911Z,99785.31
2018-04-26T00:23:32.382Z,99782.91
2018-04-26T00:26:33.864Z,99781.27
2018-04-26T00:29:35.309Z,99779.09
2018-04-26T00:32:36.805Z,99777.94
2018-04-26T00:35:38.282Z,99801.91
2018-04-26T00:38:39.813Z,99794.41
2018-04-26T00:41:42.047Z,99780.75
2018-04-26T00:44:43.579Z,99777.20
2018-04-26T00:47:45.163Z,99786.83
2018-04-26T00:50:46.650Z,99784.11
2018-04-26T00:53:48.213Z,99779.47
2018-04-26T00:56:49.747Z,99787.97
2018-04-26T00:59:51.244Z,99781.52
2018-04-26T01:02:52.664Z,99779.80
2018-04-26T01:05:54.939Z,99782.08
2018-04-26T01:08:56.529Z,99783.08
2018-04-26T01:11:57.971Z,99773.58
2018-04-26T01:14:59.442Z,99773.98
2018-04-26T01:18:00.951Z,99764.27
2018-04-26T01:21:02.478Z,99765.23
2018-04-26T01:24:05.421Z,99768.41
2018-04-26T01:27:09.064Z,99764.98
2018-04-26T01:46:28.805Z,99760.94
2018-04-26T01:49:31.276Z,99764.63
2018-04-26T01:52:33.184Z,99758.19
2018-04-26T01:55:37.735Z,99744.67
2018-04-26T01:58:39.276Z,99761.04
2018-04-26T02:01:42.181Z,99757.89
2018-04-26T02:04:44.554Z,99757.16
2018-04-26T02:07:46.076Z,99748.87
2018-04-26T02:10:47.552Z,99755.23
2018-04-26T02:13:49.022Z,99755.31
2018-04-26T02:16:50.500Z,99758.09
2018-04-26T02:19:52.044Z,99757.18
2018-04-26T02:22:54.321Z,99752.98
2018-04-26T02:25:56.109Z,99737.79
2018-04-26T02:28:57.571Z,99762.63
2018-04-26T02:31:59.054Z,99765.82
2018-04-26T02:35:00.565Z,99760.70
2018-04-26T02:38:02.163Z,99758.20
2018-04-26T02:41:04.353Z,99761.55
2018-04-26T02:44:05.893Z,99767.33
2018-04-26T02:47:07.930Z,99751.61
2018-04-26T02:50:09.376Z,99759.67
2018-04-26T02:53:10.877Z,99765.97
2018-04-26T02:56:12.394Z,99759.56
2018-04-26T02:59:14.723Z,99772.40
2018-04-26T03:02:16.303Z,99759.59
2018-04-26T03:05:17.826Z,99755.98
2018-04-26T03:08:20.149Z,99760.69
2018-04-26T03:11:21.630Z,99763.11
2018-04-26T03:14:23.991Z,99746.25
2018-04-26T03:17:25.521Z,99756.80
2018-04-26T03:20:26.960Z,99754.45
2018-04-26T03:23:28.597Z,99747.47
2018-04-26T03:26:30.048Z,99750.66
2018-04-26T03:29:32.259Z,99756.84
2018-04-26T03:32:33.726Z,99778.56
2018-04-26T03:35:35.297Z,99775.28
2018-04-26T03:38:36.778Z,99781.17
2018-04-26T03:41:40.197Z,99788.48
2018-04-26T03:44:41.646Z,99773.84
2018-04-26T03:47:43.114Z,99786.38
2018-04-26T03:50:44.595Z,99784.56
2018-04-26T03:53:47.115Z,99780.67
2018-04-26T03:56:48.925Z,99783.20
2018-04-26T04:00:10.143Z,99782.38
2018-04-26T04:03:30.297Z,99779.98
2018-04-26T04:06:31.764Z,99776.95
2018-04-26T04:09:33.258Z,99764.11
2018-04-26T04:12:34.698Z,99777.18
2018-04-26T04:15:36.958Z,99774.62
2018-04-26T04:18:39.606Z,99775.80
2018-04-26T04:21:41.685Z,99789.02
2018-04-26T04:24:43.151Z,99788.63
2018-04-26T04:27:44.699Z,99798.75
2018-04-26T04:30:46.454Z,99796.87
2018-04-26T04:33:48.650Z,99810.36
2018-04-26T04:36:50.198Z,99806.56
2018-04-26T04:39:52.401Z,99801.13
2018-04-26T04:42:54.686Z,99813.16
2018-04-26T04:45:56.925Z,99812.75
2018-04-26T04:48:58.492Z,99822.37
2018-04-26T04:51:59.995Z,99817.39
2018-04-26T04:55:02.253Z,99833.67
2018-04-26T04:58:03.713Z,99832.66
2018-04-26T05:01:05.210Z,99829.79
2018-04-26T05:04:06.647Z,99835.34
2018-04-26T05:07:08.063Z,99831.20
2018-04-26T05:10:10.251Z,99828.77
2018-04-26T05:13:12.451Z,99830.97
2018-04-26T05:16:13.865Z,99840.16
2018-04-26T05:19:15.332Z,99839.72
2018-04-26T05:22:16.783Z,99818.08
2018-04-26T05:25:18.279Z,99834.85
2018-04-26T05:28:19.771Z,99841.56
2018-04-26T05:31:21.162Z,99842.02
2018-04-26T05:34:22.624Z,99844.01
2018-04-26T05:37:24.084Z,99825.70
2018-04-26T05:40:26.241Z,99865.89
2018-04-26T05:43:27.786Z,99853.41
2018-04-26T05:46:29.324Z,99880.75
2018-04-26T05:49:30.805Z,99895.72
2018-04-26T05:52:34.057Z,99910.03
2018-04-26T05:55:35.561Z,99908.81
2018-04-26T05:58:37.200Z,99916.45
2018-04-26T06:01:40.842Z,99948.59
2018-04-26T06:04:43.166Z,99943.56
2018-04-26T06:07:44.752Z,99922.91
2018-04-26T06:10:57.683Z,99927.00
2018-04-26T06:13:59.220Z,99931.36
2018-04-26T06:17:01.411Z,99943.13
2018-04-26T06:20:02.935Z,99942.92
2018-04-26T06:23:04.392Z,99940.67
2018-04-26T06:26:05.823Z,99950.41
2018-04-26T06:29:08.327Z,99959.05
2018-04-26T06:32:09.846Z,99964.38
2018-04-26T06:35:12.328Z,99968.39
2018-04-26T06:38:14.534Z,99967.78
2018-04-26T06:41:20.419Z,99975.87
2018-04-26T06:44:22.631Z,99981.28
2018-04-26T06:47:24.155Z,99978.87
2018-04-26T06:50:26.529Z,99996.83
2018-04-26T06:53:28.132Z,99983.58
2018-04-26T06:56:29.675Z,99996.34
2018-04-26T06:59:31.162Z,99995.77
2018-04-26T07:02:33.442Z,100001.48
2018-04-26T07:05:34.992Z,100006.10
2018-04-26T07:08:36.573Z,100008.12
2018-04-26T07:11:38.840Z,100002.55
2018-04-26T07:14:40.458Z,100010.17
2018-04-26T07:17:41.930Z,100013.22
2018-04-26T07:20:43.507Z,100014.19
2018-04-26T07:23:45.011Z,100019.27
2018-04-26T07:26:46.530Z,100021.20
2018-04-26T07:29:48.862Z,100060.87
2018-04-26T07:32:50.352Z,99999.83
2018-04-26T07:35:51.822Z,100016.20
2018-04-26T07:38:53.379Z,100027.75
2018-04-26T07:41:54.859Z,100028.30
2018-04-26T07:44:56.362Z,100028.95
2018-04-26T07:47:58.630Z,100037.03
2018-04-26T07:51:00.951Z,100026.52
2018-04-26T07:54:02.543Z,100033.58
2018-04-26T07:57:04.065Z,100036.46
2018-04-26T08:00:08.597Z,100038.60
2018-04-26T08:03:10.090Z,100032.69
2018-04-26T08:06:12.386Z,100045.11
2018-04-26T08:09:13.911Z,100038.67
2018-04-26T08:12:15.389Z,100047.55
2018-04-26T08:15:16.943Z,100039.81
2018-04-26T08:18:18.555Z,100036.34
2018-04-26T08:21:20.817Z,100048.55
2018-04-26T08:24:22.293Z,100044.41
2018-04-26T08:27:24.574Z,100049.77
2018-04-26T08:30:26.049Z,100050.53
2018-04-26T08:33:27.550Z,100059.62
2018-04-26T08:36:29.019Z,100055.33
2018-04-26T08:39:30.557Z,100058.79
2018-04-26T08:42:32.010Z,100058.64
2018-04-26T08:45:33.530Z,100051.49
2018-04-26T08:48:34.993Z,100056.42
2018-04-26T08:51:36.523Z,100069.90
2018-04-26T08:54:38.747Z,100071.14
2018-04-26T08:57:40.268Z,100075.74
2018-04-26T09:00:41.865Z,100071.95
2018-04-26T09:03:44.081Z,100082.95
2018-04-26T09:06:45.584Z,100071.17
2018-04-26T09:09:47.041Z,100074.01
2018-04-26T09:26:29.701Z,100079.12
2018-04-26T09:29:31.243Z,100074.77
2018-04-26T09:32:32.771Z,100079.22
2018-04-26T09:35:34.254Z,100077.09
2018-04-26T09:38:35.751Z,100082.98
2018-04-26T09:41:37.205Z,100085.56
2018-04-26T09:44:39.459Z,100080.41
2018-04-26T09:47:41.050Z,100081.05
2018-04-26T09:50:42.608Z,100094.16
2018-04-26T09:53:44.180Z,100086.55
2018-04-26T09:56:45.656Z,100081.89
2018-04-26T09:59:47.293Z,100072.66
2018-04-26T10:02:49.376Z,100076.48
2018-04-26T10:05:56.891Z,100075.66
2018-04-26T10:08:58.394Z,100090.80
2018-04-26T10:12:00.162Z,100082.70
2018-04-26T10:15:01.811Z,100067.13
2018-04-26T10:18:04.044Z,100084.37
2018-04-26T10:21:06.376Z,100084.27
2018-04-26T10:24:07.780Z,100092.09
2018-04-26T10:27:09.246Z,100082.16
2018-04-26T10:30:10.779Z,100089.48
2018-04-26T10:33:12.296Z,100103.02
2018-04-26T10:36:13.808Z,100104.94
2018-04-26T10:39:15.310Z,100103.83
2018-04-26T10:42:16.840Z,100111.66
2018-04-26T10:45:18.381Z,100101.06
2018-04-26T10:48:20.676Z,100097.50
2018-04-26T10:51:22.215Z,100087.36
2018-04-26T10:54:23.762Z,100114.28
2018-04-26T10:57:25.305Z,100114.14
2018-04-26T11:00:26.893Z,100098.21
2018-04-26T11:03:28.407Z,100109.44
2018-04-26T11:06:29.943Z,100103.80
2018-04-26T11:09:31.444Z,100082.16
2018-04-26T11:15:41.323Z,100093.65
2018-04-26T11:18:42.812Z,100107.81
2018-04-26T11:21:44.329Z,100107.49
2018-04-26T11:24:45.819Z,100105.94
2018-04-26T11:27:47.305Z,100101.80
2018-04-26T11:30:48.801Z,100101.41
2018-04-26T11:33:51.081Z,100093.57
2018-04-26T11:36:52.545Z,100092.12
2018-04-26T11:39:54.030Z,100112.86
2018-04-26T11:42:56.306Z,100101.86
2018-04-26T11:45:57.862Z,100061.00
2018-04-26T11:49:02.254Z,100086.41
2018-04-26T11:52:03.728Z,100085.47
2018-04-26T11:55:05.218Z,100105.34
2018-04-26T11:58:07.422Z,100097.94
2018-04-26T12:01:08.897Z,100089.47
2018-04-26T12:04:10.362Z,100109.61
2018-04-26T12:07:11.911Z,100099.81
2018-04-26T12:10:13.419Z,100099.16
2018-04-26T12:13:15.689Z,100103.05
2018-04-26T12:16:17.153Z,100106.39
2018-04-26T12:19:19.414Z,100104.13
2018-04-26T12:22:20.920Z,100098.67
2018-04-26T12:25:22.403Z,100097.84
2018-04-26T12:28:24.633Z,100106.80
2018-04-26T12:31:26.112Z,100114.00
2018-04-26T12:34:28.326Z,100106.84
2018-04-26T12:37:30.557Z,100105.67
2018-04-26T12:40:32.038Z,100100.36
2018-04-26T12:43:33.535Z,100101.87
2018-04-26T12:46:35.076Z,100102.09
2018-04-26T12:49:36.516Z,100111.16
2018-04-26T12:52:38.095Z,100119.00
2018-04-26T12:55:39.584Z,100124.88
2018-04-26T12:58:41.164Z,100122.10
2018-04-26T13:01:42.656Z,100122.08
2018-04-26T13:04:44.150Z,100114.02
2018-04-26T13:07:46.766Z,100106.66
2018-04-26T13:10:48.450Z,100097.22
2018-04-26T13:13:49.999Z,100091.78
2018-04-26T13:16:52.137Z,100107.91
2018-04-26T13:19:54.422Z,100119.89
2018-04-26T13:26:04.086Z,100102.31
2018-04-26T13:29:05.595Z,100104.39
2018-04-26T13:32:08.296Z,100097.94
2018-04-26T13:35:09.967Z,100107.09
2018-04-26T13:38:11.467Z,100084.80
2018-04-26T13:41:12.966Z,100090.18
2018-04-26T13:44:14.439Z,100085.03
2018-04-26T13:47:16.073Z,100103.57
2018-04-26T13:50:18.293Z,100107.54
2018-04-26T13:53:19.939Z,100126.25
2018-04-26T13:56:21.569Z,100121.87
2018-04-26T13:59:23.100Z,100172.28
2018-04-26T14:02:24.573Z,100187.94
2018-04-26T14:11:38.828Z,100189.19
2018-04-26T14:14:50.858Z,100152.36
2018-04-26T14:17:56.507Z,100165.14
2018-04-26T14:20:59.704Z,100169.56
2018-04-26T14:24:25.167Z,100165.08
2018-04-26T14:27:34.580Z,100157.55
2018-04-26T14:41:16.262Z,100127.59
2018-04-26T14:44:25.263Z,100152.75
2018-04-26T14:47:57.296Z,100131.20
2018-04-26T15:03:47.373Z,100125.58
2018-04-26T15:06:48.819Z,100126.83
2018-04-26T15:09:51.138Z,100122.92
2018-04-26T15:12:52.685Z,100114.01
2018-04-26T15:15:55.001Z,100110.03
2018-04-26T15:18:56.490Z,100108.80
2018-04-26T15:21:57.970Z,100111.95
2018-04-26T15:24:59.591Z,100109.31
2018-04-26T15:28:01.135Z,100113.41
2018-04-26T15:31:03.442Z,100075.84
2018-04-26T15:34:04.969Z,100117.45
2018-04-26T15:37:06.442Z,100102.66
2018-04-26T15:43:37.178Z,100099.61
